Tegelen, Netherlands
Current Conditions -  °F | °C
As of 12:20 PM on Saturday 25 Oct 2014 (Local Time) from EDLN Reporting Station
Haze Haze  
Wind Chill: 55°   Ceiling: 600
Heat Index: 55°   Visibility: 3mi
Dew Point: 54°   Wind: 3mph
Humidity: 94%   Direction: NA
Pressure: 30.09"   Gusts: NA
Location:  51.34°N, 6.14°E
Report Text: EDLN 251020Z VRB03KT 5000 BR BKN006 13/12 Q1019 RMK ATIS J
Loading
Personal Weather Stations






























Interactive Weather Map
Tropical Storm Tracking
New forecast layout! Learn more

10-Day Weather Forecast

Advertisements
Track Severe Weather on mobile